Terminal Aerodrome Forecast
Issued by NWS

Home | Current Version | Previous Version | Text Only | Print | Product List | Glossary On
Versions: 1 2 3 4 5 6 7 8 9 10 11 12 13 14 15 16 17 18 19 20 21 22 23
000
FTUS41 KBTV 290500
TAFRUT
TAF
KRUT 290520Z 2906/3006 33007KT 6SM BR OVC020
      TEMPO 2908/2911 3SM BR BKN010
     FM291200 30005KT P6SM SCT025
     FM291500 29008KT P6SM SCT035
      AMD LTD TO CLD VIS AND WIND=

USA.gov is the U.S. government's official web portal to all federal, state and local government web resources and services.